Time;durP1;ratioP1;P1;durP2;ratioP2;P2;SDS_P1;SDS_P2;PMS_P1;PMS_P2;Temp;Humidity;BMP_temperature;BMP_pressure;BME280_temperature;BME280_humidity;BME280_pressure;Samples;Min_cycle;Max_cycle;Signal;HPM_P1;HPM_P2
2021/07/09 21:59:46;;;;;;;49.60;7.45;;;;;;;16.72;99.17;98451.47;5003737;27;53953;-70
2021/07/09 22:02:11;;;;;;;60.30;8.15;;;;;;;17.05;100.00;98446.97;4969123;28;20152;-69
2021/07/09 22:04:37;;;;;;;55.55;7.80;;;;;;;16.86;99.70;98445.44;4984543;28;20784;-71
2021/07/09 22:07:03;;;;;;;56.65;7.93;;;;;;;17.03;99.62;98452.34;4970671;28;20648;-69
2021/07/09 22:09:28;;;;;;;61.97;8.43;;;;;;;16.45;100.00;98447.84;4971608;28;20018;-71
2021/07/09 22:11:55;;;;;;;57.92;8.35;;;;;;;16.26;100.00;98443.63;4970549;28;20050;-71
2021/07/09 22:14:20;;;;;;;66.50;8.40;;;;;;;16.35;100.00;98448.38;4972321;28;20032;-74
2021/07/09 22:16:45;;;;;;;67.25;9.65;;;;;;;16.06;100.00;98449.19;4971632;28;20047;-72
2021/07/09 22:19:11;;;;;;;70.57;9.70;;;;;;;16.10;100.00;98453.31;4967729;28;20098;-69
2021/07/09 22:21:36;;;;;;;62.67;9.13;;;;;;;16.04;100.00;98444.00;4972712;28;20038;-72
2021/07/09 22:24:01;;;;;;;71.90;8.82;;;;;;;16.43;100.00;98444.44;4973579;28;20449;-71
2021/07/09 22:27:56;;;;;;;78.13;9.13;;;;;;;17.00;100.00;98449.03;5086709;27;20456;-71
2021/07/09 22:30:21;;;;;;;70.65;7.80;;;;;;;17.12;100.00;98448.31;5047677;28;20036;-71
2021/07/09 22:32:47;;;;;;;72.32;8.75;;;;;;;16.41;100.00;98447.16;5038940;28;20148;-71
2021/07/09 22:35:12;;;;;;;69.53;8.73;;;;;;;16.17;100.00;98438.88;5037676;28;20065;-70
2021/07/09 22:37:39;;;;;;;81.13;9.23;;;;;;;15.93;100.00;98444.59;5034908;28;20351;-71
2021/07/09 22:40:59;;;;;;;87.57;9.10;;;;;;;16.24;100.00;98440.25;5075268;27;20858;-70
2021/07/09 22:44:09;;;;;;;61.90;7.78;;;;;;;16.08;100.00;98439.41;5059994;27;20392;-69
2021/07/09 22:46:35;;;;;;;73.45;8.43;;;;;;;16.23;100.00;98442.94;5055857;28;20041;-69
2021/07/09 22:49:00;;;;;;;82.18;9.35;;;;;;;16.05;100.00;98444.88;5023998;28;20029;-71
2021/07/09 22:51:25;;;;;;;82.30;8.85;;;;;;;16.42;100.00;98440.13;5021627;28;20047;-70
2021/07/09 22:53:51;;;;;;;82.63;9.30;;;;;;;16.25;100.00;98441.94;5021657;28;20029;-70
2021/07/09 22:56:46;;;;;;;67.70;8.63;;;;;;;16.29;99.67;98442.63;5024205;28;20409;-71
2021/07/09 22:59:11;;;;;;;59.70;7.20;;;;;;;16.48;100.00;98442.41;5018947;28;20037;-72
2021/07/09 23:01:36;;;;;;;72.78;8.73;;;;;;;16.07;100.00;98450.88;5018726;28;20037;-70
2021/07/09 23:04:02;;;;;;;75.95;8.90;;;;;;;16.15;100.00;98451.28;5022681;28;20678;-70
2021/07/09 23:06:27;;;;;;;61.03;7.38;;;;;;;16.48;100.00;98455.56;5020637;28;20733;-71
2021/07/09 23:09:10;;;;;;;43.35;5.97;;;;;;;16.08;100.00;98453.44;5102788;27;20433;-70
2021/07/09 23:11:36;;;;;;;50.33;6.93;;;;;;;16.19;100.00;98448.41;5048735;28;20041;-71
2021/07/09 23:14:01;;;;;;;43.35;5.85;;;;;;;16.53;100.00;98456.16;5024089;28;20087;-70
2021/07/09 23:16:26;;;;;;;51.45;6.43;;;;;;;16.29;100.00;98451.34;5021997;28;20544;-71
2021/07/09 23:18:52;;;;;;;51.80;6.40;;;;;;;16.24;99.51;98450.78;5023447;28;20018;-70
2021/07/09 23:21:17;;;;;;;52.08;6.55;;;;;;;15.75;100.00;98448.25;5024557;28;20042;-70
2021/07/09 23:23:42;;;;;;;44.38;6.00;;;;;;;15.86;100.00;98455.56;5026180;28;20026;-71
2021/07/09 23:26:09;;;;;;;46.15;6.22;;;;;;;15.75;100.00;98449.13;5022748;28;20045;-71
2021/07/09 23:28:35;;;;;;;43.90;5.78;;;;;;;16.31;100.00;98451.28;5025308;28;20029;-70
2021/07/09 23:31:00;;;;;;;37.28;4.90;;;;;;;16.74;100.00;98439.09;5010845;28;20033;-70
2021/07/09 23:33:25;;;;;;;43.42;5.40;;;;;;;16.58;100.00;98435.69;5026325;28;20498;-70
2021/07/09 23:35:51;;;;;;;59.97;7.30;;;;;;;16.11;100.00;98433.97;5025514;28;20645;-70
2021/07/09 23:38:16;;;;;;;43.45;5.65;;;;;;;16.61;100.00;98427.56;5024019;28;20471;-71
2021/07/09 23:40:43;;;;;;;42.60;6.25;;;;;;;16.33;100.00;98433.59;5024153;28;20512;-70
2021/07/09 23:43:08;;;;;;;42.47;6.13;;;;;;;16.32;99.52;98431.91;5025173;28;20032;-71
2021/07/09 23:45:34;;;;;;;45.85;6.28;;;;;;;16.02;99.17;98429.25;5022927;28;20038;-71
2021/07/09 23:48:00;;;;;;;53.65;6.63;;;;;;;16.34;100.00;98425.63;5024478;28;20025;-70
2021/07/09 23:50:25;;;;;;;43.17;6.00;;;;;;;16.00;100.00;98422.28;5023376;28;20068;-71
2021/07/09 23:52:51;;;;;;;47.08;6.43;;;;;;;15.75;100.00;98427.19;5023788;28;20025;-71
2021/07/09 23:55:16;;;;;;;46.33;6.20;;;;;;;15.60;100.00;98432.38;5024162;28;20032;-70
2021/07/09 23:57:42;;;;;;;55.95;6.85;;;;;;;15.66;100.00;98430.31;5023389;28;20021;-70
